Ayr, Nebraska
Current Conditions -  °F | °C
As of 9:53 PM on Thursday 27 Nov 2014 (Local Time) from KHSI Reporting Station
Clear Clear  
Wind Chill: 22°   Ceiling: Unl
Heat Index: 32°   Visibility: 10mi
Dew Point: 18°   Wind: 14mph
Humidity: 56%   Direction: 170°S
Pressure: 30.02"   Gusts: NA
Location:  40.44°N, 98.44°W
Report Text: KHSI 280353Z AUTO 17012KT 10SM CLR 00/M08 A3002 RMK AO2 SLP189 T00001078
Loading
Personal Weather Stations






























Interactive Weather Map New forecast layout! Learn more

10-Day Weather Forecast

Advertisements
Track Severe Weather on mobile